Time;durP1;ratioP1;P1;durP2;ratioP2;P2;SDS_P1;SDS_P2;PMS_P1;PMS_P2;Temp;Humidity;BMP_temperature;BMP_pressure;BME280_temperature;BME280_humidity;BME280_pressure;Samples;Min_cycle;Max_cycle;Signal;HPM_P1;HPM_P2
2021/03/07 00:00:33;;;;;;;2.78;1.45;;;2.00;99.90;;;;;;4930901;29;20040;-76
2021/03/07 00:02:59;;;;;;;2.60;1.08;;;2.10;99.90;;;;;;4930385;29;20139;-76
2021/03/07 00:05:25;;;;;;;2.58;1.05;;;2.10;99.90;;;;;;4928641;29;20028;-76
2021/03/07 00:07:52;;;;;;;0.77;0.70;;;2.10;99.90;;;;;;4929627;29;20096;-76
2021/03/07 00:10:27;;;;;;;3.80;1.30;;;2.20;99.90;;;;;;4927305;29;20707;-76
2021/03/07 00:12:53;;;;;;;10.57;1.50;;;2.20;99.90;;;;;;4926622;29;20043;-76
2021/03/07 00:15:20;;;;;;;3.47;1.00;;;2.20;99.90;;;;;;4929821;29;20036;-76
2021/03/07 00:17:48;;;;;;;1.05;0.85;;;2.30;99.90;;;;;;4930345;29;20103;-74
2021/03/07 00:20:16;;;;;;;2.42;1.13;;;2.30;99.90;;;;;;4928171;29;20035;-76
2021/03/07 00:22:49;;;;;;;1.38;0.75;;;2.30;99.90;;;;;;4926575;29;20020;-75
2021/03/07 00:25:24;;;;;;;4.15;1.65;;;2.30;99.90;;;;;;4928164;29;20032;-75
2021/03/07 00:27:50;;;;;;;8.63;1.20;;;2.30;99.90;;;;;;4929112;29;20032;-75
2021/03/07 00:30:17;;;;;;;4.07;1.38;;;2.30;99.90;;;;;;4928852;29;20056;-75
2021/03/07 00:32:44;;;;;;;2.35;0.63;;;2.30;99.90;;;;;;4928972;29;20095;-76
2021/03/07 00:35:13;;;;;;;2.40;1.17;;;2.40;99.90;;;;;;4928664;29;20122;-75
2021/03/07 00:37:40;;;;;;;1.35;0.73;;;2.40;99.90;;;;;;4930327;29;20032;-77
2021/03/07 00:40:06;;;;;;;2.33;0.85;;;2.40;99.90;;;;;;4928444;29;20032;-75
2021/03/07 00:42:32;;;;;;;2.78;0.82;;;2.40;99.90;;;;;;4929713;29;20040;-76
2021/03/07 00:44:58;;;;;;;2.40;1.35;;;2.30;99.90;;;;;;4929958;29;20085;-75
2021/03/07 00:47:24;;;;;;;2.17;1.13;;;2.30;99.90;;;;;;4921031;29;20055;-76
2021/03/07 00:49:50;;;;;;;2.75;0.90;;;2.40;99.90;;;;;;4911257;29;20060;-76
2021/03/07 00:52:16;;;;;;;1.67;1.08;;;2.40;99.90;;;;;;4909561;29;20036;-76
2021/03/07 00:54:42;;;;;;;4.05;1.42;;;2.40;99.90;;;;;;4911005;29;20024;-76
2021/03/07 00:57:07;;;;;;;2.92;1.00;;;2.40;99.90;;;;;;4909674;29;20048;-76
2021/03/07 00:59:33;;;;;;;0.88;0.73;;;2.50;99.90;;;;;;4909593;29;20032;-76
2021/03/07 01:01:58;;;;;;;5.07;1.83;;;2.50;99.90;;;;;;4910660;29;20047;-76
2021/03/07 01:04:24;;;;;;;1.65;0.70;;;2.50;99.90;;;;;;4910588;29;20078;-76
2021/03/07 01:06:50;;;;;;;1.63;0.65;;;2.50;99.90;;;;;;4910935;29;20039;-75
2021/03/07 01:09:16;;;;;;;16.25;1.27;;;2.50;99.90;;;;;;4910792;29;20060;-75
2021/03/07 01:11:42;;;;;;;1.02;0.60;;;2.50;99.90;;;;;;4910693;29;20043;-75
2021/03/07 01:14:07;;;;;;;2.08;1.20;;;2.50;99.90;;;;;;4910628;29;20056;-75
2021/03/07 01:16:33;;;;;;;1.63;1.00;;;2.50;99.90;;;;;;4909187;29;20024;-75
2021/03/07 01:19:00;;;;;;;8.07;1.38;;;2.50;99.90;;;;;;4910726;29;20033;-76
2021/03/07 01:21:25;;;;;;;1.73;0.80;;;2.50;99.90;;;;;;4909234;29;20047;-75
2021/03/07 01:23:51;;;;;;;4.68;1.50;;;2.50;99.90;;;;;;4910580;29;20036;-76
2021/03/07 01:26:17;;;;;;;2.30;1.50;;;2.50;99.90;;;;;;4910420;29;20120;-75
2021/03/07 01:28:43;;;;;;;1.77;1.20;;;2.50;99.90;;;;;;4909179;29;20036;-75
2021/03/07 01:31:08;;;;;;;4.22;1.33;;;2.50;99.90;;;;;;4908945;29;20036;-73
2021/03/07 01:33:34;;;;;;;4.45;1.13;;;2.50;99.90;;;;;;4910391;29;20111;-74
2021/03/07 01:36:02;;;;;;;2.97;0.82;;;2.50;99.90;;;;;;4908831;29;20029;-75
2021/03/07 01:38:29;;;;;;;1.17;0.80;;;2.60;99.90;;;;;;4910246;29;20025;-75
2021/03/07 01:40:55;;;;;;;1.55;0.65;;;2.60;99.90;;;;;;4910150;29;20041;-75
2021/03/07 01:43:22;;;;;;;0.95;0.60;;;2.60;99.90;;;;;;4910353;29;20040;-76
2021/03/07 01:45:48;;;;;;;1.58;0.88;;;2.60;99.90;;;;;;4908588;29;20028;-75
2021/03/07 01:48:15;;;;;;;2.42;0.95;;;2.60;99.90;;;;;;4909887;29;20123;-75
2021/03/07 01:50:43;;;;;;;2.35;0.95;;;2.70;99.90;;;;;;4909976;29;20092;-74
2021/03/07 01:53:09;;;;;;;1.45;0.82;;;2.60;99.90;;;;;;4909581;29;20024;-75
2021/03/07 01:55:37;;;;;;;4.45;0.90;;;2.60;99.90;;;;;;4908631;29;20442;-75
2021/03/07 01:58:19;;;;;;;1.95;0.98;;;2.60;99.90;;;;;;4908479;29;20029;-75
2021/03/07 02:00:46;;;;;;;3.17;0.93;;;2.70;99.90;;;;;;4909907;29;20040;-75
2021/03/07 02:03:12;;;;;;;5.13;1.27;;;2.70;99.90;;;;;;4909566;29;20251;-75
2021/03/07 02:05:39;;;;;;;5.40;1.05;;;2.70;99.90;;;;;;4909551;29;20051;-74
2021/03/07 02:08:06;;;;;;;0.52;0.50;;;2.70;99.90;;;;;;4908266;29;20042;-76
2021/03/07 02:10:39;;;;;;;0.70;0.70;;;2.70;99.90;;;;;;4908285;29;20404;-76
2021/03/07 02:13:12;;;;;;;1.58;0.63;;;2.70;99.90;;;;;;4909751;29;20055;-75
2021/03/07 02:15:41;;;;;;;3.60;1.00;;;2.70;99.90;;;;;;4909772;29;20040;-75
2021/03/07 02:18:08;;;;;;;6.07;1.10;;;2.70;99.90;;;;;;4909815;29;20028;-75
2021/03/07 02:20:38;;;;;;;1.60;0.77;;;2.80;99.90;;;;;;4908157;29;20040;-75
2021/03/07 02:23:11;;;;;;;2.28;0.68;;;2.80;99.90;;;;;;4909593;29;20025;-75
2021/03/07 02:25:37;;;;;;;4.53;1.05;;;2.80;99.90;;;;;;4909421;29;20037;-75
2021/03/07 02:28:06;;;;;;;0.80;0.60;;;2.80;99.90;;;;;;4908910;29;20088;-75
2021/03/07 02:30:32;;;;;;;3.40;0.93;;;2.80;99.90;;;;;;4908052;29;20025;-75
2021/03/07 02:33:22;;;;;;;1.08;0.47;;;2.80;99.90;;;;;;4909339;29;20056;-75
2021/03/07 02:36:05;;;;;;;1.38;0.80;;;2.80;99.90;;;;;;4909698;29;20037;-75
2021/03/07 02:38:34;;;;;;;2.65;0.93;;;2.80;99.90;;;;;;4909320;29;20024;-76
2021/03/07 02:41:00;;;;;;;1.63;0.80;;;2.90;99.90;;;;;;4909058;29;20047;-75
2021/03/07 02:43:31;;;;;;;2.35;1.23;;;2.80;99.90;;;;;;4909163;29;20032;-75
2021/03/07 02:46:00;;;;;;;0.65;0.38;;;2.80;99.90;;;;;;4909331;29;20109;-75
2021/03/07 02:48:27;;;;;;;0.65;0.28;;;2.90;99.90;;;;;;4909347;29;20028;-76
2021/03/07 02:50:57;;;;;;;1.63;0.77;;;2.80;99.90;;;;;;4909151;29;20116;-76
2021/03/07 02:53:25;;;;;;;1.98;0.88;;;2.90;99.90;;;;;;4909202;29;20033;-76
2021/03/07 02:55:58;;;;;;;0.85;0.73;;;2.90;99.90;;;;;;4907984;29;20414;-78
2021/03/07 02:58:25;;;;;;;1.15;0.30;;;2.90;99.90;;;;;;4909328;29;20028;-76
2021/03/07 03:00:58;;;;;;;2.35;0.85;;;2.90;99.90;;;;;;4907934;29;20429;-77
2021/03/07 03:03:29;;;;;;;0.90;0.68;;;3.00;99.90;;;;;;4909028;29;20055;-76
2021/03/07 03:05:57;;;;;;;1.05;0.68;;;3.00;99.90;;;;;;4909190;29;20044;-76
2021/03/07 03:08:23;;;;;;;1.45;0.80;;;3.00;99.90;;;;;;4909243;29;20507;-75
2021/03/07 03:10:50;;;;;;;4.65;1.20;;;3.00;99.90;;;;;;4909151;29;20124;-76
2021/03/07 03:13:19;;;;;;;1.70;0.82;;;3.00;99.90;;;;;;4907709;29;20040;-76
2021/03/07 03:15:45;;;;;;;3.08;1.35;;;3.00;99.90;;;;;;4908955;29;20037;-75
2021/03/07 03:18:12;;;;;;;1.10;0.77;;;3.10;99.90;;;;;;4908798;29;20039;-76
2021/03/07 03:20:38;;;;;;;3.08;1.35;;;3.00;99.90;;;;;;4908753;29;20029;-75
2021/03/07 03:23:03;;;;;;;1.60;1.00;;;3.00;99.90;;;;;;4909013;29;20033;-75
2021/03/07 03:25:29;;;;;;;1.95;0.95;;;3.00;99.90;;;;;;4918212;29;20032;-76
2021/03/07 03:27:56;;;;;;;1.35;0.63;;;3.10;99.90;;;;;;4924117;29;20119;-76
2021/03/07 03:30:23;;;;;;;1.50;0.90;;;3.00;99.90;;;;;;4926766;29;20035;-76
2021/03/07 03:32:49;;;;;;;10.38;1.27;;;3.00;99.90;;;;;;4927653;29;20513;-76
2021/03/07 03:35:16;;;;;;;1.27;0.80;;;3.00;99.90;;;;;;4926334;29;20063;-76
2021/03/07 03:37:43;;;;;;;1.15;0.65;;;3.00;99.90;;;;;;4923325;29;20072;-76
2021/03/07 03:40:15;;;;;;;1.35;0.75;;;3.00;99.90;;;;;;4925988;29;20031;-76
2021/03/07 03:42:42;;;;;;;5.07;1.17;;;3.00;99.90;;;;;;4929915;29;20032;-74
2021/03/07 03:45:09;;;;;;;1.73;0.60;;;3.00;99.90;;;;;;4930699;29;20056;-75
2021/03/07 03:47:42;;;;;;;3.70;1.20;;;3.00;99.90;;;;;;4931069;29;20083;-74
2021/03/07 03:50:10;;;;;;;1.13;0.73;;;3.00;99.90;;;;;;4929633;29;20035;-74
2021/03/07 03:52:37;;;;;;;1.83;1.25;;;3.00;99.90;;;;;;4930965;29;20024;-75
2021/03/07 03:55:17;;;;;;;0.73;0.60;;;3.00;99.90;;;;;;4930750;29;20034;-75
2021/03/07 03:57:45;;;;;;;1.52;0.70;;;3.00;99.90;;;;;;4929526;29;20040;-75
2021/03/07 04:00:19;;;;;;;6.53;1.35;;;3.00;99.90;;;;;;4930555;29;20035;-76
2021/03/07 04:02:46;;;;;;;;;;;3.00;99.90;;;;;;4931263;29;20063;-75
2021/03/07 04:05:17;;;;;;;0.90;0.77;;;3.00;99.90;;;;;;4930634;29;19911;-75
2021/03/07 04:07:45;;;;;;;2.10;1.10;;;3.00;99.90;;;;;;4928715;29;20189;-75
2021/03/07 04:10:15;;;;;;;6.70;1.17;;;2.90;99.90;;;;;;4930780;29;20096;-75
2021/03/07 04:12:41;;;;;;;5.97;0.93;;;3.00;99.90;;;;;;4929464;29;20511;-75
2021/03/07 04:15:09;;;;;;;1.75;1.00;;;3.00;99.90;;;;;;4930558;29;20067;-75
2021/03/07 04:17:35;;;;;;;1.08;0.70;;;2.90;99.90;;;;;;4930734;29;20051;-75
2021/03/07 04:20:03;;;;;;;2.33;1.25;;;2.90;99.90;;;;;;4929128;29;20024;-75
2021/03/07 04:22:29;;;;;;;6.25;0.63;;;2.90;99.90;;;;;;4930497;29;20040;-75
2021/03/07 04:24:54;;;;;;;1.52;0.90;;;2.90;99.90;;;;;;4930470;29;20051;-75
2021/03/07 04:27:23;;;;;;;1.25;0.73;;;2.90;99.90;;;;;;4931356;29;20481;-76
2021/03/07 04:29:50;;;;;;;4.82;1.20;;;2.90;99.90;;;;;;4930691;29;20149;-75
2021/03/07 04:32:16;;;;;;;2.15;1.42;;;2.90;99.90;;;;;;4928672;29;20028;-75
2021/03/07 04:34:42;;;;;;;1.25;0.60;;;2.90;99.90;;;;;;4930229;29;20032;-75
2021/03/07 04:37:08;;;;;;;1.45;0.80;;;2.90;99.90;;;;;;4930342;29;20038;-75
2021/03/07 04:39:34;;;;;;;2.10;1.13;;;2.90;99.90;;;;;;4929994;29;20040;-76
2021/03/07 04:42:00;;;;;;;2.78;1.48;;;2.90;99.90;;;;;;4929876;29;20047;-76
2021/03/07 04:44:26;;;;;;;1.88;1.20;;;2.90;99.90;;;;;;4930201;29;20028;-76
2021/03/07 04:46:52;;;;;;;2.60;1.42;;;2.90;99.90;;;;;;4928994;29;20381;-75
2021/03/07 04:49:18;;;;;;;3.50;1.20;;;2.90;99.90;;;;;;4928798;29;20095;-75
2021/03/07 04:51:43;;;;;;;1.58;0.88;;;2.90;99.90;;;;;;4928323;29;20354;-77
2021/03/07 04:54:09;;;;;;;2.58;1.50;;;2.80;99.90;;;;;;4930108;29;20034;-75
2021/03/07 04:56:35;;;;;;;2.38;1.20;;;2.80;99.90;;;;;;4929728;29;20032;-76
2021/03/07 04:59:00;;;;;;;0.95;0.60;;;2.80;99.90;;;;;;4929859;29;20064;-76
2021/03/07 05:01:26;;;;;;;5.07;1.38;;;2.80;99.90;;;;;;4929610;29;20047;-75
2021/03/07 05:03:54;;;;;;;2.28;1.10;;;2.80;99.90;;;;;;4928433;29;20143;-76
2021/03/07 05:06:24;;;;;;;5.00;1.30;;;2.80;99.90;;;;;;4929998;29;20028;-75
2021/03/07 05:08:50;;;;;;;1.83;0.80;;;2.80;99.90;;;;;;4930114;29;20389;-76
2021/03/07 05:11:16;;;;;;;1.73;1.13;;;2.80;99.90;;;;;;4928388;29;20036;-75
2021/03/07 05:13:42;;;;;;;2.17;0.95;;;2.80;99.90;;;;;;4929548;29;20028;-75
2021/03/07 05:16:09;;;;;;;2.92;1.88;;;2.80;99.90;;;;;;4929428;29;20032;-75
2021/03/07 05:18:35;;;;;;;3.05;1.52;;;2.80;99.90;;;;;;4928140;29;20028;-75
2021/03/07 05:21:01;;;;;;;4.22;2.25;;;2.80;99.90;;;;;;4929319;29;20043;-76
2021/03/07 05:23:27;;;;;;;9.05;1.65;;;2.80;99.90;;;;;;4929355;29;20028;-76
2021/03/07 05:25:53;;;;;;;1.83;0.85;;;2.90;99.90;;;;;;4928332;29;20038;-76
2021/03/07 05:28:19;;;;;;;2.75;1.40;;;2.80;99.90;;;;;;4929609;29;20123;-76
2021/03/07 05:30:44;;;;;;;1.92;0.73;;;2.80;99.90;;;;;;4929517;29;20036;-75
2021/03/07 05:33:11;;;;;;;3.53;1.30;;;2.80;99.90;;;;;;4929286;29;20111;-76
2021/03/07 05:35:36;;;;;;;5.75;1.48;;;2.80;99.90;;;;;;4929113;29;20032;-76
2021/03/07 05:38:02;;;;;;;2.80;1.45;;;2.80;99.90;;;;;;4927640;29;20168;-75
2021/03/07 05:40:30;;;;;;;5.93;1.60;;;2.80;99.90;;;;;;4929067;29;20500;-76
2021/03/07 05:42:57;;;;;;;3.55;1.58;;;2.80;99.90;;;;;;4928956;29;20024;-76
2021/03/07 05:45:23;;;;;;;2.33;1.17;;;2.80;99.90;;;;;;4929291;29;20048;-76
2021/03/07 05:47:52;;;;;;;4.28;2.10;;;2.80;99.90;;;;;;4929209;29;20533;-76
2021/03/07 05:50:18;;;;;;;3.75;2.03;;;2.90;99.90;;;;;;4928959;29;20028;-76
2021/03/07 05:52:44;;;;;;;6.68;1.88;;;2.80;99.90;;;;;;4928884;29;20035;-76
2021/03/07 05:55:10;;;;;;;4.70;2.58;;;2.90;99.90;;;;;;4928808;29;20032;-76
2021/03/07 05:57:37;;;;;;;5.88;2.17;;;2.90;99.90;;;;;;4928743;29;20024;-76
2021/03/07 06:00:04;;;;;;;2.00;1.48;;;2.80;99.90;;;;;;4928878;29;20060;-77
2021/03/07 06:02:30;;;;;;;4.00;1.77;;;2.80;99.90;;;;;;4926608;29;20127;-77
2021/03/07 06:04:56;;;;;;;8.48;2.78;;;2.80;99.90;;;;;;4928371;29;20040;-77
2021/03/07 06:07:21;;;;;;;4.30;2.00;;;2.80;99.90;;;;;;4928811;29;20036;-77
2021/03/07 06:09:47;;;;;;;3.78;1.80;;;2.80;99.90;;;;;;4928680;29;20067;-76
2021/03/07 06:12:15;;;;;;;4.53;1.75;;;2.80;99.90;;;;;;4928668;29;20405;-76
2021/03/07 06:14:43;;;;;;;7.38;2.65;;;2.80;99.90;;;;;;4927207;29;20072;-74
2021/03/07 06:17:09;;;;;;;3.70;1.42;;;2.80;99.90;;;;;;4927331;29;20040;-76
2021/03/07 06:20:03;;;;;;;5.68;1.92;;;2.80;99.90;;;;;;4927351;29;20095;-76
2021/03/07 06:22:31;;;;;;;2.50;1.40;;;2.80;99.90;;;;;;4928521;29;20040;-75
2021/03/07 06:24:57;;;;;;;3.15;1.55;;;2.80;99.90;;;;;;4928416;29;20032;-76
2021/03/07 06:27:24;;;;;;;3.70;1.55;;;2.80;99.90;;;;;;4927875;29;20058;-77
2021/03/07 06:30:18;;;;;;;4.38;1.65;;;2.80;99.90;;;;;;4924856;29;20051;-76
2021/03/07 06:32:59;;;;;;;6.78;1.45;;;2.80;99.90;;;;;;4938039;29;20039;-76
2021/03/07 06:35:31;;;;;;;2.75;1.67;;;2.80;99.90;;;;;;4939481;28;20104;-76
2021/03/07 06:37:59;;;;;;;3.90;2.05;;;2.90;99.90;;;;;;4939968;28;20486;-76
2021/03/07 06:40:32;;;;;;;4.60;1.75;;;2.80;99.90;;;;;;4937364;28;20040;-76
2021/03/07 06:43:00;;;;;;;5.28;1.90;;;2.90;99.90;;;;;;4928045;29;20096;-77
2021/03/07 06:45:41;;;;;;;3.15;1.55;;;2.80;99.90;;;;;;4928182;29;20028;-76
2021/03/07 06:48:08;;;;;;;5.25;1.77;;;2.90;99.90;;;;;;4924678;29;20096;-75
2021/03/07 06:50:35;;;;;;;3.75;1.70;;;2.90;99.90;;;;;;4925273;29;20033;-75
2021/03/07 06:53:01;;;;;;;4.57;1.67;;;2.90;99.90;;;;;;4928020;29;20060;-74
2021/03/07 06:55:43;;;;;;;2.70;1.83;;;2.90;99.90;;;;;;4928134;29;20155;-74
2021/03/07 06:58:16;;;;;;;4.88;1.95;;;2.90;99.90;;;;;;4928166;29;20095;-75
2021/03/07 07:00:42;;;;;;;3.38;1.55;;;2.90;99.90;;;;;;4912639;29;20746;-75
2021/03/07 07:03:16;;;;;;;4.00;2.15;;;2.90;99.90;;;;;;4907687;29;20068;-75
2021/03/07 07:05:47;;;;;;;3.42;1.70;;;2.90;99.90;;;;;;4907605;29;20062;-75
2021/03/07 07:08:15;;;;;;;7.07;2.33;;;3.00;99.90;;;;;;4909042;29;20472;-75
2021/03/07 07:10:53;;;;;;;4.00;1.70;;;3.00;99.90;;;;;;4908830;29;20398;-76
2021/03/07 07:13:23;;;;;;;4.32;2.17;;;3.00;99.90;;;;;;4907944;29;20123;-76
2021/03/07 07:16:07;;;;;;;2.83;1.60;;;3.00;99.90;;;;;;4911934;29;20093;-74
2021/03/07 07:18:35;;;;;;;7.35;2.17;;;3.00;99.90;;;;;;4912310;29;20033;-75
2021/03/07 07:21:02;;;;;;;2.45;1.67;;;3.00;99.90;;;;;;4911257;29;20051;-75
2021/03/07 07:23:28;;;;;;;4.32;2.35;;;3.00;99.90;;;;;;4912545;29;20036;-75
2021/03/07 07:25:55;;;;;;;8.75;2.55;;;3.10;99.90;;;;;;4911409;29;20497;-77
2021/03/07 07:28:21;;;;;;;4.40;2.70;;;3.10;99.90;;;;;;4912474;29;20062;-76
2021/03/07 07:31:04;;;;;;;4.38;2.47;;;3.10;99.90;;;;;;4912512;29;20085;-76
2021/03/07 07:33:41;;;;;;;12.95;2.88;;;3.10;99.90;;;;;;4912486;29;20401;-77
2021/03/07 07:36:12;;;;;;;2.88;1.60;;;3.10;99.90;;;;;;4918926;29;20091;-74
2021/03/07 07:38:39;;;;;;;8.95;2.47;;;3.10;99.90;;;;;;4931127;29;20536;-77
2021/03/07 07:41:35;;;;;;;4.55;2.38;;;3.10;99.90;;;;;;4930808;29;20040;-76
2021/03/07 07:44:02;;;;;;;2.50;1.63;;;3.10;99.90;;;;;;4916543;29;20025;-74
2021/03/07 07:46:28;;;;;;;9.68;2.42;;;3.10;99.90;;;;;;4920954;29;20036;-76
2021/03/07 07:48:54;;;;;;;4.05;2.10;;;3.20;99.90;;;;;;4929190;29;20541;-76
2021/03/07 07:51:32;;;;;;;6.47;2.28;;;3.20;99.90;;;;;;4926591;29;20033;-77
2021/03/07 07:53:59;;;;;;;4.50;2.15;;;3.30;99.90;;;;;;4912225;29;20025;-76
2021/03/07 07:56:35;;;;;;;4.00;2.15;;;3.30;99.90;;;;;;4912127;29;20059;-76
2021/03/07 07:59:01;;;;;;;4.68;1.80;;;3.30;99.90;;;;;;4910486;29;20033;-75
2021/03/07 08:01:54;;;;;;;4.25;2.20;;;3.40;99.90;;;;;;4910492;29;20258;-75
2021/03/07 08:04:29;;;;;;;5.20;2.63;;;3.40;99.90;;;;;;4910121;29;20089;-76
2021/03/07 08:06:56;;;;;;;3.90;1.90;;;3.40;99.90;;;;;;4911599;29;20056;-75
2021/03/07 08:09:41;;;;;;;6.47;2.40;;;3.50;99.90;;;;;;4910108;29;20033;-76
2021/03/07 08:12:41;;;;;;;3.47;2.40;;;3.50;99.90;;;;;;4910069;29;20043;-76
2021/03/07 08:15:25;;;;;;;3.22;2.10;;;3.50;99.90;;;;;;4911461;29;20044;-76
2021/03/07 08:17:59;;;;;;;2.85;1.88;;;3.40;99.90;;;;;;4911669;29;20501;-76
2021/03/07 08:20:54;;;;;;;;;;;3.50;99.90;;;;;;4910599;29;20043;-75
2021/03/07 08:23:21;;;;;;;3.08;2.03;;;3.50;99.90;;;;;;4918007;29;19979;-76
2021/03/07 08:25:50;;;;;;;4.40;1.90;;;3.60;99.90;;;;;;4920233;29;20037;-76
2021/03/07 08:28:28;;;;;;;2.78;1.70;;;3.60;99.90;;;;;;4911316;29;20056;-75
2021/03/07 08:31:03;;;;;;;6.65;2.50;;;3.60;99.90;;;;;;4911710;29;20032;-76
2021/03/07 08:33:34;;;;;;;5.38;2.55;;;3.60;99.90;;;;;;4911906;29;20052;-77
2021/03/07 08:36:15;;;;;;;4.68;2.05;;;3.70;99.90;;;;;;4912240;29;20025;-77
2021/03/07 08:38:53;;;;;;;4.47;2.50;;;3.70;99.90;;;;;;4947762;29;20032;-76
2021/03/07 08:41:21;;;;;;;6.00;2.40;;;3.70;99.90;;;;;;4910858;29;20696;-78
2021/03/07 08:43:57;;;;;;;11.52;2.97;;;3.70;99.90;;;;;;4909688;29;20036;-76
2021/03/07 08:46:28;;;;;;;3.92;2.30;;;3.80;99.90;;;;;;4909768;29;20028;-77
2021/03/07 08:49:06;;;;;;;10.80;2.72;;;3.80;99.90;;;;;;4911043;29;20036;-77
2021/03/07 08:51:36;;;;;;;6.15;2.65;;;3.80;99.90;;;;;;4909810;29;20127;-77
2021/03/07 08:54:10;;;;;;;6.68;2.30;;;3.80;99.90;;;;;;4919238;29;20096;-77
2021/03/07 08:56:37;;;;;;;3.85;2.03;;;3.80;99.90;;;;;;4910856;29;20028;-76
2021/03/07 08:59:06;;;;;;;4.45;2.20;;;3.80;99.90;;;;;;4924967;29;20025;-76
2021/03/07 09:01:34;;;;;;;10.63;2.85;;;3.90;99.90;;;;;;4909286;29;20040;-77
2021/03/07 09:04:02;;;;;;;7.75;2.63;;;3.90;99.90;;;;;;4910622;29;20068;-77
2021/03/07 09:06:30;;;;;;;7.55;2.90;;;3.90;99.90;;;;;;4910361;29;20371;-77
2021/03/07 09:09:06;;;;;;;4.75;2.80;;;3.90;99.90;;;;;;4910635;29;20088;-76
2021/03/07 09:11:32;;;;;;;5.40;3.05;;;3.90;99.90;;;;;;4909464;29;20037;-76
2021/03/07 09:13:58;;;;;;;4.97;2.33;;;3.90;99.90;;;;;;4908464;29;20043;-75
2021/03/07 09:16:36;;;;;;;8.18;3.03;;;4.00;99.90;;;;;;4909698;29;20036;-75
2021/03/07 09:19:02;;;;;;;5.35;2.70;;;4.10;99.90;;;;;;4927468;29;20036;-76
2021/03/07 09:21:28;;;;;;;9.13;3.03;;;4.10;99.90;;;;;;4928792;29;20405;-75
2021/03/07 09:23:53;;;;;;;5.35;2.65;;;4.20;99.90;;;;;;4927668;29;20037;-73
2021/03/07 09:26:20;;;;;;;4.40;1.83;;;4.20;99.90;;;;;;4926731;29;20059;-77
2021/03/07 09:28:54;;;;;;;7.45;2.92;;;4.30;99.90;;;;;;4925591;29;20837;-77
2021/03/07 09:31:32;;;;;;;3.65;2.40;;;4.30;99.90;;;;;;4924088;29;20058;-77
2021/03/07 09:33:59;;;;;;;5.47;3.15;;;4.40;99.90;;;;;;4928433;29;20092;-73
2021/03/07 09:36:27;;;;;;;4.70;2.67;;;4.50;99.90;;;;;;4940724;29;20059;-77
2021/03/07 09:39:07;;;;;;;7.60;3.00;;;4.60;99.90;;;;;;4947657;29;20142;-76
2021/03/07 09:41:44;;;;;;;6.97;2.60;;;4.60;99.90;;;;;;4946906;29;20436;-74
2021/03/07 09:44:11;;;;;;;6.93;2.75;;;4.70;99.90;;;;;;4947384;28;20054;-74
2021/03/07 09:46:38;;;;;;;4.53;2.30;;;4.80;99.90;;;;;;4945703;29;20066;-76
2021/03/07 09:49:06;;;;;;;5.05;2.47;;;4.80;99.90;;;;;;4945570;28;20083;-76
2021/03/07 09:51:39;;;;;;;3.92;2.40;;;5.00;99.90;;;;;;4945762;28;20028;-77
2021/03/07 09:54:15;;;;;;;9.52;3.08;;;5.10;99.90;;;;;;4947753;29;20031;-76
2021/03/07 09:56:41;;;;;;;8.18;3.20;;;5.30;99.90;;;;;;4947458;28;20032;-75
2021/03/07 09:59:27;;;;;;;5.68;2.42;;;5.60;99.90;;;;;;4947537;29;20032;-75
2021/03/07 10:01:58;;;;;;;15.98;2.55;;;5.70;99.90;;;;;;4932055;29;20052;-75
2021/03/07 10:04:44;;;;;;;10.10;3.10;;;5.70;99.90;;;;;;4928534;29;20044;-75
2021/03/07 10:07:15;;;;;;;5.75;2.47;;;5.90;99.90;;;;;;4927273;29;20462;-76
2021/03/07 10:10:05;;;;;;;6.60;2.17;;;6.10;99.90;;;;;;4928429;29;20024;-75
2021/03/07 10:12:56;;;;;;;5.97;2.72;;;6.40;99.90;;;;;;4928435;29;20039;-75
2021/03/07 10:15:29;;;;;;;5.20;2.50;;;6.60;99.90;;;;;;4927144;29;20087;-75
2021/03/07 10:17:58;;;;;;;7.78;2.58;;;6.50;99.90;;;;;;4928443;29;20039;-76
2021/03/07 10:20:31;;;;;;;3.47;2.30;;;6.60;99.90;;;;;;4927030;29;20047;-75
2021/03/07 10:22:57;;;;;;;9.10;3.03;;;6.70;99.90;;;;;;4927994;29;20047;-76
2021/03/07 10:25:30;;;;;;;4.35;2.67;;;6.80;99.90;;;;;;4927082;29;20051;-75
2021/03/07 10:28:20;;;;;;;6.07;2.38;;;6.70;99.90;;;;;;4926915;29;20032;-75
2021/03/07 10:30:47;;;;;;;9.63;2.95;;;6.70;99.90;;;;;;4928238;29;20039;-75
2021/03/07 10:33:26;;;;;;;6.13;2.67;;;6.50;99.90;;;;;;4927225;29;20107;-76
2021/03/07 10:36:08;;;;;;;5.50;2.70;;;6.60;99.90;;;;;;4927103;29;20493;-76
2021/03/07 10:38:39;;;;;;;7.50;2.38;;;6.60;99.90;;;;;;4928311;29;20056;-75
2021/03/07 10:41:20;;;;;;;5.85;2.42;;;6.50;99.90;;;;;;4927163;29;20531;-76
2021/03/07 10:43:51;;;;;;;6.60;3.35;;;6.40;99.90;;;;;;4928023;29;20115;-77
2021/03/07 10:46:34;;;;;;;6.28;2.83;;;6.50;99.90;;;;;;4927949;29;20040;-75
2021/03/07 10:49:02;;;;;;;7.18;2.88;;;6.60;99.90;;;;;;4928997;29;20028;-76
2021/03/07 10:51:28;;;;;;;6.97;3.50;;;6.70;99.90;;;;;;4932878;29;20032;-77
2021/03/07 10:53:55;;;;;;;5.57;3.00;;;6.80;99.90;;;;;;4930121;29;20036;-77
2021/03/07 10:56:26;;;;;;;5.93;3.17;;;6.90;99.90;;;;;;4924806;29;20033;-75
2021/03/07 10:58:52;;;;;;;5.70;3.10;;;7.00;99.90;;;;;;4914362;29;20048;-77
2021/03/07 11:01:18;;;;;;;5.13;3.00;;;7.00;99.90;;;;;;4934390;29;20052;-76
2021/03/07 11:03:44;;;;;;;6.03;2.72;;;7.20;99.90;;;;;;4934094;29;20059;-74
2021/03/07 11:06:10;;;;;;;5.00;3.05;;;7.00;99.90;;;;;;4934360;29;20064;-74
2021/03/07 11:08:37;;;;;;;6.18;2.70;;;6.90;99.90;;;;;;4929720;29;20029;-74
2021/03/07 11:11:04;;;;;;;6.88;3.50;;;6.90;99.90;;;;;;4913837;29;20053;-77
2021/03/07 11:13:30;;;;;;;5.20;2.78;;;7.00;99.90;;;;;;4913747;29;20032;-76
2021/03/07 11:15:59;;;;;;;7.68;3.70;;;7.00;99.90;;;;;;4914060;29;20108;-74
2021/03/07 11:18:25;;;;;;;9.43;3.33;;;6.70;99.90;;;;;;4914992;29;20386;-74
2021/03/07 11:20:51;;;;;;;9.07;3.42;;;6.60;99.90;;;;;;4914315;29;20036;-75
2021/03/07 11:23:17;;;;;;;7.47;4.07;;;6.60;99.90;;;;;;4913862;29;20028;-75
2021/03/07 11:25:43;;;;;;;12.27;3.80;;;6.80;99.90;;;;;;4915256;29;20100;-75
2021/03/07 11:28:09;;;;;;;13.75;3.58;;;6.70;99.90;;;;;;4913880;29;20060;-75
2021/03/07 11:30:35;;;;;;;6.90;3.40;;;6.60;99.90;;;;;;4911760;29;20478;-76
2021/03/07 11:33:01;;;;;;;7.22;3.55;;;6.70;99.90;;;;;;4914489;29;20028;-75
2021/03/07 11:35:27;;;;;;;9.20;3.97;;;6.70;99.90;;;;;;4914487;29;20474;-76
2021/03/07 11:37:58;;;;;;;9.95;4.53;;;6.90;99.90;;;;;;4913288;29;20028;-77
2021/03/07 11:40:27;;;;;;;8.77;4.47;;;6.90;99.90;;;;;;4914166;29;20040;-77
2021/03/07 11:42:57;;;;;;;12.85;4.07;;;6.90;99.90;;;;;;4922895;29;20028;-75
2021/03/07 11:45:25;;;;;;;5.35;3.13;;;6.90;99.90;;;;;;4931565;29;20042;-76
2021/03/07 11:47:50;;;;;;;8.10;3.67;;;6.80;99.90;;;;;;4933335;29;20028;-75
2021/03/07 11:50:17;;;;;;;10.43;4.07;;;6.80;99.90;;;;;;4933423;29;20070;-76
2021/03/07 11:52:42;;;;;;;6.07;3.22;;;6.60;99.90;;;;;;4931871;29;20740;-75
2021/03/07 11:55:09;;;;;;;9.77;3.92;;;6.30;99.90;;;;;;4933048;29;20088;-75
2021/03/07 11:57:35;;;;;;;20.23;4.10;;;6.20;99.90;;;;;;4931497;29;20036;-74
2021/03/07 12:00:03;;;;;;;7.22;3.13;;;6.20;99.90;;;;;;4932941;29;20079;-75
2021/03/07 12:02:28;;;;;;;11.32;4.10;;;6.10;99.90;;;;;;4928841;29;20196;-77
2021/03/07 12:04:54;;;;;;;8.00;3.80;;;6.10;99.90;;;;;;4930198;29;20035;-76
2021/03/07 12:07:19;;;;;;;5.88;3.35;;;6.20;99.90;;;;;;4930396;29;20513;-75
2021/03/07 12:09:46;;;;;;;10.00;4.22;;;6.10;99.90;;;;;;4929503;29;20037;-75
2021/03/07 12:12:12;;;;;;;14.13;3.83;;;6.10;99.90;;;;;;4928402;29;20028;-74
2021/03/07 12:14:38;;;;;;;6.80;3.78;;;6.00;99.90;;;;;;4929692;29;20028;-75
2021/03/07 12:17:03;;;;;;;9.63;3.47;;;6.00;99.90;;;;;;4929775;29;20085;-75
2021/03/07 12:19:29;;;;;;;9.68;4.05;;;6.10;99.90;;;;;;4929928;29;20032;-74
2021/03/07 12:21:57;;;;;;;11.75;4.28;;;6.10;99.90;;;;;;4928117;29;20043;-76
2021/03/07 12:24:24;;;;;;;9.38;4.00;;;6.00;99.90;;;;;;4930293;29;20083;-78
2021/03/07 12:26:49;;;;;;;10.23;3.92;;;6.00;99.90;;;;;;4930246;29;20532;-75
2021/03/07 12:29:15;;;;;;;17.55;4.22;;;6.00;99.90;;;;;;4929771;29;20028;-75
2021/03/07 12:31:41;;;;;;;11.63;4.65;;;5.90;99.90;;;;;;4929944;29;20032;-76
2021/03/07 12:34:06;;;;;;;11.77;3.70;;;5.90;99.90;;;;;;4927857;29;20088;-75
2021/03/07 12:36:32;;;;;;;10.07;3.72;;;5.90;99.90;;;;;;4929476;29;20040;-75
2021/03/07 12:38:59;;;;;;;8.68;4.15;;;5.80;99.90;;;;;;4929322;29;20036;-74
2021/03/07 12:41:25;;;;;;;12.13;5.00;;;5.70;99.90;;;;;;4929402;29;20044;-76
2021/03/07 12:43:51;;;;;;;11.88;4.68;;;5.70;99.90;;;;;;4928372;29;20032;-74
2021/03/07 12:46:16;;;;;;;8.57;4.40;;;5.70;99.90;;;;;;4928935;29;20047;-75
2021/03/07 12:48:42;;;;;;;21.05;4.53;;;5.60;99.90;;;;;;4928152;29;20039;-75
2021/03/07 12:51:07;;;;;;;9.65;3.85;;;5.60;99.90;;;;;;4928391;29;20083;-75
2021/03/07 12:53:33;;;;;;;14.52;3.67;;;5.60;99.90;;;;;;4929514;29;20051;-76
2021/03/07 12:55:59;;;;;;;16.50;5.75;;;5.60;99.90;;;;;;4929511;29;20044;-77
2021/03/07 12:58:25;;;;;;;12.25;4.85;;;5.60;99.90;;;;;;4929254;29;20043;-77
2021/03/07 13:00:51;;;;;;;13.35;5.43;;;5.50;99.90;;;;;;4929529;29;20059;-75
2021/03/07 13:03:16;;;;;;;14.20;4.85;;;5.50;99.90;;;;;;4929336;29;20498;-76
2021/03/07 13:05:42;;;;;;;13.35;4.93;;;5.50;99.90;;;;;;4929112;29;20035;-76